createdAt,value
2019-01-15T00:00:40.111Z,78.96
2019-01-15T00:01:40.198Z,79.06
2019-01-15T00:02:40.292Z,78.96
2019-01-15T00:03:40.373Z,79.06
2019-01-15T00:04:40.460Z,79.15
2019-01-15T00:05:40.547Z,79.06
2019-01-15T00:06:40.635Z,79.15
2019-01-15T00:07:40.719Z,79.34
2019-01-15T00:08:40.807Z,79.63
2019-01-15T00:09:40.896Z,79.44
2019-01-15T00:10:40.983Z,79.63
2019-01-15T00:11:41.067Z,79.53
2019-01-15T00:12:41.156Z,79.82
2019-01-15T00:13:41.264Z,80.00
2019-01-15T00:14:41.349Z,79.82
2019-01-15T00:15:41.438Z,80.38
2019-01-15T00:16:41.533Z,80.38
2019-01-15T00:17:41.618Z,80.76
2019-01-15T00:18:41.705Z,80.29
2019-01-15T00:19:41.794Z,80.48
2019-01-15T00:20:41.879Z,79.91
2019-01-15T00:21:41.966Z,80.19
2019-01-15T00:22:42.058Z,80.00
2019-01-15T00:23:42.149Z,79.91
2019-01-15T00:24:42.227Z,80.86
2019-01-15T00:25:42.313Z,80.57
2019-01-15T00:26:42.403Z,80.86
2019-01-15T00:27:42.483Z,80.76
2019-01-15T00:28:42.575Z,80.76
2019-01-15T00:29:42.661Z,80.86
2019-01-15T00:30:42.747Z,80.57
2019-01-15T00:31:42.836Z,80.57
2019-01-15T00:32:42.921Z,80.48
2019-01-15T00:33:43.006Z,80.67
2019-01-15T00:34:43.092Z,80.67
2019-01-15T00:35:43.178Z,80.57
2019-01-15T00:36:43.266Z,80.57
2019-01-15T00:37:43.359Z,81.05
2019-01-15T00:38:43.439Z,81.05
2019-01-15T00:39:43.523Z,81.14
2019-01-15T00:40:43.606Z,81.14
2019-01-15T00:41:43.699Z,81.33
2019-01-15T00:42:43.788Z,81.33
2019-01-15T00:43:43.869Z,80.95
2019-01-15T00:44:43.957Z,81.81
2019-01-15T00:45:44.043Z,81.43
2019-01-15T00:46:44.128Z,81.05
2019-01-15T00:47:44.215Z,81.24
2019-01-15T00:48:44.300Z,81.14
2019-01-15T00:49:44.392Z,81.99
2019-01-15T00:50:44.476Z,81.24
2019-01-15T00:51:44.560Z,81.33
2019-01-15T00:52:44.646Z,81.33
2019-01-15T00:53:44.731Z,81.52
2019-01-15T00:54:44.821Z,81.52
2019-01-15T00:55:44.901Z,81.24
2019-01-15T00:56:44.991Z,81.62
2019-01-15T00:57:45.081Z,81.62
2019-01-15T00:58:45.171Z,81.33
2019-01-15T00:59:45.257Z,81.62
2019-01-15T01:00:45.346Z,81.43
2019-01-15T01:01:45.435Z,81.52
2019-01-15T01:02:45.548Z,81.52
2019-01-15T01:03:45.637Z,81.52
2019-01-15T01:04:45.720Z,81.24
2019-01-15T01:05:45.809Z,81.43
2019-01-15T01:06:45.896Z,81.24
2019-01-15T01:07:45.981Z,81.43
2019-01-15T01:08:46.064Z,81.33
2019-01-15T01:09:46.153Z,81.90
2019-01-15T01:10:46.237Z,81.14
2019-01-15T01:11:46.325Z,81.14
2019-01-15T01:12:46.415Z,81.24
2019-01-15T01:13:46.502Z,81.24
2019-01-15T01:14:46.588Z,81.24
2019-01-15T01:15:46.675Z,80.86
2019-01-15T01:16:46.763Z,80.95
2019-01-15T01:17:46.860Z,80.95
2019-01-15T01:18:46.943Z,80.86
2019-01-15T01:19:47.030Z,80.86
2019-01-15T01:20:47.115Z,80.86
2019-01-15T01:21:47.201Z,80.86
2019-01-15T01:22:47.283Z,80.67
2019-01-15T01:23:47.376Z,80.95
2019-01-15T01:24:47.459Z,81.33
2019-01-15T01:25:47.547Z,81.05
2019-01-15T01:26:47.634Z,81.14
2019-01-15T01:27:47.716Z,80.86
2019-01-15T01:28:47.801Z,81.81
2019-01-15T01:29:47.890Z,81.81
2019-01-15T01:30:47.976Z,81.33
2019-01-15T01:31:48.064Z,81.62
2019-01-15T01:32:48.157Z,81.05
2019-01-15T01:33:48.241Z,81.43
2019-01-15T01:34:48.327Z,81.43
2019-01-15T01:35:48.416Z,81.33
2019-01-15T01:36:48.502Z,81.43
2019-01-15T01:37:48.632Z,81.52
2019-01-15T01:38:48.678Z,81.52
2019-01-15T01:39:48.762Z,81.24
2019-01-15T01:40:48.847Z,82.09
2019-01-15T01:41:48.932Z,81.99
2019-01-15T01:42:49.024Z,82.28
2019-01-15T01:43:49.123Z,82.09
2019-01-15T01:44:49.217Z,81.99
2019-01-15T01:45:49.322Z,82.09
2019-01-15T01:46:49.408Z,81.71
2019-01-15T01:47:49.500Z,81.81
2019-01-15T01:48:49.586Z,82.28
2019-01-15T01:49:49.678Z,82.66
2019-01-15T01:50:49.766Z,82.66
2019-01-15T01:51:49.855Z,82.66
2019-01-15T01:52:49.944Z,82.85
2019-01-15T01:53:50.030Z,82.47
2019-01-15T01:54:50.115Z,83.51
2019-01-15T01:55:50.197Z,83.70
2019-01-15T01:56:50.282Z,83.32
2019-01-15T01:57:50.366Z,83.51
2019-01-15T01:58:50.453Z,83.23
2019-01-15T01:59:50.543Z,83.18
2019-01-15T02:00:50.630Z,83.80
2019-01-15T02:01:50.716Z,83.37
2019-01-15T02:02:50.803Z,83.89
2019-01-15T02:03:50.889Z,83.80
2019-01-15T02:04:50.978Z,84.08
2019-01-15T02:05:51.064Z,84.08
2019-01-15T02:06:51.150Z,84.08
2019-01-15T02:07:51.241Z,83.70
2019-01-15T02:08:51.328Z,83.89
2019-01-15T02:09:51.414Z,83.89
2019-01-15T02:10:51.496Z,83.98
2019-01-15T02:11:51.581Z,83.98
2019-01-15T02:12:51.667Z,84.08
2019-01-15T02:13:51.755Z,84.08
2019-01-15T02:14:51.839Z,84.27
2019-01-15T02:15:51.929Z,84.17
2019-01-15T02:16:52.018Z,83.80
2019-01-15T02:17:52.105Z,84.27
2019-01-15T02:18:52.194Z,84.17
2019-01-15T02:19:52.276Z,84.17
2019-01-15T02:20:52.368Z,84.27
2019-01-15T02:21:52.455Z,84.94
2019-01-15T02:22:52.531Z,84.55
2019-01-15T02:23:52.627Z,84.74
2019-01-15T02:24:52.707Z,84.74
2019-01-15T02:25:52.795Z,84.74
2019-01-15T02:26:52.884Z,84.84
2019-01-15T02:27:52.969Z,85.03
2019-01-15T02:28:53.062Z,84.84
2019-01-15T02:29:53.144Z,84.84
2019-01-15T02:30:53.230Z,84.94
2019-01-15T02:31:53.320Z,84.65
2019-01-15T02:32:53.410Z,84.46
2019-01-15T02:33:53.498Z,84.84
2019-01-15T02:34:53.607Z,84.65
2019-01-15T02:35:53.691Z,84.36
2019-01-15T02:36:53.776Z,84.65
2019-01-15T02:37:53.860Z,85.03
2019-01-15T02:38:53.945Z,84.84
2019-01-15T02:39:54.035Z,84.65
2019-01-15T02:40:54.118Z,84.65
2019-01-15T02:41:54.207Z,84.65
2019-01-15T02:42:54.295Z,84.55
2019-01-15T02:43:54.385Z,84.84
2019-01-15T02:44:54.464Z,84.94
2019-01-15T02:45:54.550Z,84.55
2019-01-15T02:46:54.637Z,85.03
2019-01-15T02:47:54.719Z,84.94
2019-01-15T02:48:54.811Z,84.84
2019-01-15T02:49:54.897Z,84.46
2019-01-15T02:50:54.985Z,84.55
2019-01-15T02:51:55.066Z,84.46
2019-01-15T02:52:55.160Z,84.55
2019-01-15T02:53:55.251Z,85.22
2019-01-15T02:54:55.334Z,84.46
2019-01-15T02:55:55.426Z,84.55
2019-01-15T02:56:55.513Z,84.84
2019-01-15T02:57:55.591Z,85.50
2019-01-15T02:58:55.679Z,84.94
2019-01-15T02:59:55.764Z,84.94
2019-01-15T03:00:55.849Z,84.65
2019-01-15T03:01:55.939Z,84.36
2019-01-15T03:02:56.018Z,84.46
2019-01-15T03:03:56.106Z,85.13
2019-01-15T03:04:56.191Z,84.84
2019-01-15T03:05:56.280Z,84.74
2019-01-15T03:06:56.363Z,84.74
2019-01-15T03:07:56.481Z,85.03
2019-01-15T03:08:56.540Z,85.50
2019-01-15T03:09:56.625Z,84.84
2019-01-15T03:10:56.720Z,85.50
2019-01-15T03:11:56.804Z,84.74
2019-01-15T03:12:57.090Z,85.22
2019-01-15T03:13:56.969Z,84.94
2019-01-15T03:14:57.055Z,84.65
2019-01-15T03:15:57.141Z,84.84
2019-01-15T03:16:57.230Z,84.74
2019-01-15T03:17:57.318Z,85.31
2019-01-15T03:19:06.074Z,84.65
2019-01-15T03:19:57.547Z,84.84
2019-01-15T03:20:57.623Z,84.74
2019-01-15T03:21:57.710Z,84.84
2019-01-15T03:22:57.797Z,84.84
2019-01-15T03:23:57.891Z,85.03
2019-01-15T03:24:57.977Z,85.50
2019-01-15T03:25:58.061Z,85.50
2019-01-15T03:26:58.151Z,85.50
2019-01-15T03:27:58.241Z,85.69
2019-01-15T03:28:58.328Z,86.12
2019-01-15T03:29:58.412Z,86.79
2019-01-15T03:30:58.508Z,86.69
2019-01-15T03:31:58.591Z,86.50
2019-01-15T03:32:58.679Z,86.69
2019-01-15T03:33:58.763Z,86.98
2019-01-15T03:34:58.845Z,87.16
2019-01-15T03:35:58.941Z,87.26
2019-01-15T03:36:59.031Z,87.16
2019-01-15T03:37:59.190Z,87.07
2019-01-15T03:38:59.195Z,87.21
2019-01-15T03:39:59.285Z,86.60
2019-01-15T03:40:59.369Z,87.07
2019-01-15T03:41:59.459Z,86.93
2019-01-15T03:43:03.877Z,86.64
2019-01-15T03:43:59.622Z,86.64
2019-01-15T03:44:59.712Z,86.35
2019-01-15T03:46:04.207Z,86.55
2019-01-15T03:46:59.885Z,86.16
2019-01-15T03:47:59.975Z,86.45
2019-01-15T03:49:00.059Z,86.55
2019-01-15T03:50:00.258Z,86.31
2019-01-15T03:51:00.239Z,86.22
2019-01-15T03:52:00.319Z,86.60
2019-01-15T03:53:00.402Z,86.41
2019-01-15T03:54:00.497Z,87.02
2019-01-15T03:55:00.573Z,86.64
2019-01-15T03:56:00.661Z,85.78
2019-01-15T03:57:00.746Z,86.45
2019-01-15T03:58:00.833Z,85.97
2019-01-15T03:59:00.913Z,86.55
2019-01-15T04:00:01.004Z,86.35
2019-01-15T04:01:01.101Z,86.55
2019-01-15T04:02:01.178Z,86.26
2019-01-15T04:03:01.254Z,86.16
2019-01-15T04:04:01.379Z,85.78
2019-01-15T04:05:01.433Z,85.41
2019-01-15T04:06:01.526Z,85.60
2019-01-15T04:07:01.624Z,85.41
2019-01-15T04:08:01.712Z,85.78
2019-01-15T04:09:01.799Z,86.35
2019-01-15T04:10:01.882Z,86.07
2019-01-15T04:11:01.981Z,86.35
2019-01-15T04:12:02.072Z,86.16
2019-01-15T04:13:02.187Z,85.69
2019-01-15T04:14:02.269Z,86.26
2019-01-15T04:15:02.359Z,86.35
2019-01-15T04:16:02.461Z,86.50
2019-01-15T04:17:02.542Z,86.98
2019-01-15T04:18:02.620Z,87.12
2019-01-15T04:19:02.691Z,86.98
2019-01-15T04:20:02.768Z,87.02
2019-01-15T04:21:02.867Z,87.02
2019-01-15T04:22:02.943Z,86.64
2019-01-15T04:23:03.022Z,86.60
2019-01-15T04:24:03.119Z,86.60
2019-01-15T04:25:03.196Z,87.02
2019-01-15T04:26:03.286Z,86.98
2019-01-15T04:27:03.374Z,87.21
2019-01-15T04:28:03.471Z,86.41
2019-01-15T04:29:03.550Z,87.07
2019-01-15T04:30:03.651Z,87.16
2019-01-15T04:31:03.733Z,87.16
2019-01-15T04:32:03.809Z,87.26
2019-01-15T04:33:03.895Z,87.26
2019-01-15T04:34:03.977Z,87.30
2019-01-15T04:35:04.057Z,87.59
2019-01-15T04:36:04.136Z,87.12
2019-01-15T04:37:04.228Z,86.88
2019-01-15T04:38:04.303Z,87.16
2019-01-15T04:39:04.373Z,87.16
2019-01-15T04:40:04.451Z,86.98
2019-01-15T04:41:04.547Z,87.16
2019-01-15T04:42:04.619Z,87.30
2019-01-15T04:43:04.691Z,86.93
2019-01-15T04:44:04.781Z,86.45
2019-01-15T04:45:04.846Z,86.74
2019-01-15T04:46:04.931Z,86.26
2019-01-15T04:47:05.010Z,86.26
2019-01-15T04:48:05.086Z,85.50
2019-01-15T04:49:05.183Z,85.60
2019-01-15T04:50:05.256Z,85.50
2019-01-15T04:51:05.336Z,85.60
2019-01-15T04:52:05.407Z,85.78
2019-01-15T04:53:05.489Z,85.13
2019-01-15T04:54:05.556Z,85.50
2019-01-15T04:55:05.676Z,85.41
2019-01-15T04:56:05.744Z,86.35
2019-01-15T04:57:05.829Z,85.13
2019-01-15T04:58:05.913Z,85.41
2019-01-15T04:59:05.998Z,85.50
2019-01-15T05:00:06.081Z,85.31
2019-01-15T05:01:06.190Z,85.41
2019-01-15T05:02:06.271Z,85.22
2019-01-15T05:03:06.357Z,85.78
2019-01-15T05:04:06.446Z,85.50
2019-01-15T05:05:06.528Z,85.41
2019-01-15T05:06:06.606Z,85.78
2019-01-15T05:07:06.693Z,85.41
2019-01-15T05:08:06.777Z,85.60
2019-01-15T05:09:06.857Z,85.50
2019-01-15T05:10:06.955Z,85.41
2019-01-15T05:11:07.040Z,85.69
2019-01-15T05:12:07.122Z,85.69
2019-01-15T05:13:07.207Z,85.69
2019-01-15T05:14:07.284Z,85.41
2019-01-15T05:15:07.377Z,85.22
2019-01-15T05:16:07.463Z,85.50
2019-01-15T05:17:07.550Z,85.31
2019-01-15T05:18:07.638Z,85.50
2019-01-15T05:19:07.720Z,85.41
2019-01-15T05:20:07.803Z,85.13
2019-01-15T05:21:07.892Z,85.78
2019-01-15T05:22:07.977Z,85.31
2019-01-15T05:23:08.071Z,84.84
2019-01-15T05:24:08.150Z,85.22
2019-01-15T05:25:08.238Z,85.13
2019-01-15T05:26:08.324Z,85.50
2019-01-15T05:27:08.411Z,85.13
2019-01-15T05:28:08.554Z,85.60
2019-01-15T05:29:08.568Z,85.13
2019-01-15T05:30:08.669Z,85.50
2019-01-15T05:31:08.752Z,85.03
2019-01-15T05:32:08.849Z,85.13
2019-01-15T05:33:08.923Z,85.78
2019-01-15T05:34:09.006Z,85.31
2019-01-15T05:35:09.090Z,85.41
2019-01-15T05:36:09.181Z,85.41
2019-01-15T05:37:09.255Z,85.60
2019-01-15T05:38:09.336Z,85.41
2019-01-15T05:39:09.425Z,85.60
2019-01-15T05:40:09.509Z,85.41
2019-01-15T05:41:09.581Z,85.41
2019-01-15T05:42:09.665Z,85.41
2019-01-15T05:43:09.775Z,85.41
2019-01-15T05:44:10.211Z,85.50
2019-01-15T05:45:09.949Z,85.69
2019-01-15T05:46:10.016Z,85.13
2019-01-15T05:47:10.114Z,85.31
2019-01-15T05:48:10.195Z,85.50
2019-01-15T05:49:10.286Z,86.35
2019-01-15T05:50:10.375Z,85.78
2019-01-15T05:51:10.462Z,86.55
2019-01-15T05:52:10.550Z,86.16
2019-01-15T05:53:10.632Z,86.07
2019-01-15T05:54:10.724Z,85.60
2019-01-15T05:55:10.806Z,86.26
2019-01-15T05:56:10.907Z,86.16
2019-01-15T05:57:10.993Z,86.16
2019-01-15T05:58:11.080Z,86.55
2019-01-15T05:59:11.167Z,87.02
2019-01-15T06:00:11.249Z,87.02
2019-01-15T06:01:11.361Z,87.49
2019-01-15T06:02:11.432Z,87.12
2019-01-15T06:03:11.506Z,87.21
2019-01-15T06:04:11.602Z,87.12
2019-01-15T06:05:11.681Z,87.21
2019-01-15T06:06:11.773Z,87.12
2019-01-15T06:07:11.878Z,87.40
2019-01-15T06:08:11.985Z,87.30
2019-01-15T06:09:12.096Z,87.59
2019-01-15T06:10:12.155Z,87.21
2019-01-15T06:11:12.231Z,87.30
2019-01-15T06:12:12.318Z,87.49
2019-01-15T06:13:12.404Z,87.21
2019-01-15T06:14:12.499Z,87.12
2019-01-15T06:15:12.555Z,87.12
2019-01-15T06:16:12.640Z,87.30
2019-01-15T06:17:12.714Z,87.21
2019-01-15T06:18:12.799Z,87.59
2019-01-15T06:19:12.884Z,87.59
2019-01-15T06:20:12.978Z,87.02
2019-01-15T06:21:13.067Z,87.30
2019-01-15T06:22:13.146Z,87.68
2019-01-15T06:23:13.228Z,87.87
2019-01-15T06:24:13.319Z,87.87
2019-01-15T06:25:13.408Z,87.02
2019-01-15T06:26:13.470Z,87.12
2019-01-15T06:27:13.564Z,87.02
2019-01-15T06:28:13.646Z,87.49
2019-01-15T06:29:13.722Z,87.21
2019-01-15T06:30:13.828Z,87.59
2019-01-15T06:31:13.953Z,87.21
2019-01-15T06:32:14.000Z,87.68
2019-01-15T06:33:14.102Z,87.40
2019-01-15T06:34:14.207Z,87.68
2019-01-15T06:35:14.258Z,87.30
2019-01-15T06:36:14.335Z,87.30
2019-01-15T06:37:14.421Z,87.40
2019-01-15T06:38:14.497Z,87.40
2019-01-15T06:39:14.576Z,87.40
2019-01-15T06:40:14.680Z,87.49
2019-01-15T06:41:14.754Z,87.49
2019-01-15T06:42:14.821Z,87.12
2019-01-15T06:43:14.918Z,87.30
2019-01-15T06:44:15.004Z,87.12
2019-01-15T06:45:15.079Z,87.21
2019-01-15T06:46:15.166Z,87.21
2019-01-15T06:47:15.260Z,87.30
2019-01-15T06:48:17.012Z,87.30
2019-01-15T06:49:15.413Z,87.21
2019-01-15T06:50:15.508Z,87.97
2019-01-15T06:51:15.590Z,87.97
2019-01-15T06:52:15.730Z,87.97
2019-01-15T06:53:15.788Z,88.25
2019-01-15T06:54:15.852Z,87.68
2019-01-15T06:55:15.985Z,88.06
2019-01-15T06:56:16.005Z,87.59
2019-01-15T06:57:16.081Z,87.40
2019-01-15T06:58:16.166Z,87.59
2019-01-15T06:59:16.245Z,87.87
2019-01-15T07:00:16.330Z,87.87
2019-01-15T07:01:16.420Z,88.35
2019-01-15T07:02:16.496Z,88.06
2019-01-15T07:03:16.596Z,88.35
2019-01-15T07:04:16.694Z,88.16
2019-01-15T07:05:16.776Z,88.06
2019-01-15T07:06:16.863Z,88.35
2019-01-15T07:07:16.938Z,88.25
2019-01-15T07:08:17.025Z,87.97
2019-01-15T07:09:17.107Z,88.35
2019-01-15T07:10:17.199Z,88.25
2019-01-15T07:11:17.286Z,88.16
2019-01-15T07:12:17.356Z,87.97
2019-01-15T07:13:17.456Z,88.35
2019-01-15T07:14:17.531Z,88.29
2019-01-15T07:15:17.630Z,88.25
2019-01-15T07:16:17.710Z,88.25
2019-01-15T07:17:17.797Z,88.39
2019-01-15T07:20:00.926Z,87.82
2019-01-15T07:21:01.016Z,87.73
2019-01-15T07:22:01.098Z,88.20
2019-01-15T07:23:01.195Z,87.92
2019-01-15T07:24:01.281Z,88.20
2019-01-15T07:25:01.363Z,88.01
2019-01-15T07:26:01.465Z,87.73
2019-01-15T07:27:01.544Z,88.01
2019-01-15T07:28:01.637Z,87.63
2019-01-15T07:29:01.727Z,87.92
2019-01-15T07:30:01.815Z,87.82
2019-01-15T07:31:01.902Z,87.82
2019-01-15T07:32:01.989Z,87.73
2019-01-15T07:33:02.081Z,88.01
2019-01-15T07:34:02.176Z,87.82
2019-01-15T07:35:02.257Z,87.63
2019-01-15T07:36:02.343Z,88.10
2019-01-15T07:37:02.431Z,87.92
2019-01-15T07:38:02.529Z,87.63
2019-01-15T07:39:02.617Z,87.92
2019-01-15T07:40:02.703Z,87.82
2019-01-15T07:41:02.791Z,87.92
2019-01-15T07:42:02.876Z,87.92
2019-01-15T07:43:02.971Z,87.92
2019-01-15T07:44:04.444Z,87.92
2019-01-15T07:45:03.149Z,87.45
2019-01-15T07:46:03.237Z,88.20
2019-01-15T07:47:03.323Z,88.20
2019-01-15T07:48:03.410Z,88.01
2019-01-15T07:49:03.495Z,87.73
2019-01-15T07:50:03.585Z,88.01
2019-01-15T07:51:03.669Z,87.82
2019-01-15T07:52:03.765Z,87.73
2019-01-15T07:53:03.853Z,87.82
2019-01-15T07:54:03.942Z,88.01
2019-01-15T07:55:04.033Z,87.92
2019-01-15T07:56:04.139Z,88.39
2019-01-15T07:57:04.213Z,88.01
2019-01-15T07:58:04.293Z,87.92
2019-01-15T07:59:04.379Z,87.92
2019-01-15T08:00:04.478Z,88.10
2019-01-15T08:01:04.627Z,87.63
2019-01-15T08:02:04.591Z,87.45
2019-01-15T08:03:04.684Z,87.73
2019-01-15T08:04:04.766Z,87.73
2019-01-15T08:05:04.856Z,87.92
2019-01-15T08:06:04.945Z,87.92
2019-01-15T08:07:05.032Z,87.73
2019-01-15T08:08:05.121Z,87.82
2019-01-15T08:09:05.206Z,87.82
2019-01-15T08:10:05.296Z,88.29
2019-01-15T08:11:05.388Z,88.39
2019-01-15T08:12:05.476Z,88.68
2019-01-15T08:13:05.639Z,88.58
2019-01-15T08:14:11.987Z,88.29
2019-01-15T08:15:05.732Z,87.82
2019-01-15T08:16:05.823Z,88.39
2019-01-15T08:17:05.913Z,88.20
2019-01-15T08:18:06.001Z,88.10
2019-01-15T08:19:06.091Z,88.20
2019-01-15T08:20:06.187Z,88.01
2019-01-15T08:21:06.275Z,88.29
2019-01-15T08:22:06.376Z,88.10
2019-01-15T08:23:06.453Z,87.73
2019-01-15T08:24:06.539Z,87.82
2019-01-15T08:25:06.628Z,87.82
2019-01-15T08:26:06.726Z,87.54
2019-01-15T08:27:06.806Z,88.01
2019-01-15T08:28:06.893Z,87.63
2019-01-15T08:29:06.985Z,87.73
2019-01-15T08:30:07.076Z,87.92
2019-01-15T08:31:07.162Z,87.92
2019-01-15T08:32:07.258Z,87.63
2019-01-15T08:33:07.346Z,87.45
2019-01-15T08:34:07.437Z,87.11
2019-01-15T08:35:07.523Z,87.39
2019-01-15T08:36:07.609Z,87.49
2019-01-15T08:37:07.703Z,87.54
2019-01-15T08:38:07.788Z,87.16
2019-01-15T08:39:07.877Z,87.49
2019-01-15T08:40:07.965Z,87.20
2019-01-15T08:41:08.059Z,87.68
2019-01-15T08:42:08.144Z,87.11
2019-01-15T08:43:08.235Z,87.11
2019-01-15T08:44:08.344Z,87.11
2019-01-15T08:45:08.404Z,87.01
2019-01-15T08:46:08.490Z,86.72
2019-01-15T08:47:08.584Z,86.72
2019-01-15T08:48:08.675Z,86.72
2019-01-15T08:49:08.769Z,86.44
2019-01-15T08:50:08.858Z,86.63
2019-01-15T08:51:08.937Z,86.25
2019-01-15T08:52:09.031Z,86.25
2019-01-15T08:53:09.113Z,86.25
2019-01-15T08:54:09.205Z,85.97
2019-01-15T08:55:09.295Z,86.63
2019-01-15T08:56:09.358Z,85.97
2019-01-15T08:57:09.461Z,85.87
2019-01-15T08:58:09.547Z,86.49
2019-01-15T08:59:09.634Z,86.40
2019-01-15T09:00:09.727Z,87.06
2019-01-15T09:01:09.809Z,87.06
2019-01-15T09:02:09.902Z,87.06
2019-01-15T09:03:10.010Z,87.39
2019-01-15T09:04:10.096Z,86.72
2019-01-15T09:05:10.179Z,86.44
2019-01-15T09:06:10.272Z,86.35
2019-01-15T09:07:10.359Z,86.63
2019-01-15T09:08:10.447Z,85.97
2019-01-15T09:09:10.560Z,85.78
2019-01-15T09:10:10.644Z,85.49
2019-01-15T09:11:10.706Z,85.87
2019-01-15T09:12:10.794Z,86.35
2019-01-15T09:13:10.881Z,86.35
2019-01-15T09:14:10.982Z,86.63
2019-01-15T09:15:11.069Z,85.87
2019-01-15T09:16:11.157Z,85.49
2019-01-15T09:17:11.306Z,85.78
2019-01-15T09:18:11.326Z,86.07
2019-01-15T09:19:11.414Z,86.25
2019-01-15T09:20:11.520Z,86.44
2019-01-15T09:21:11.583Z,86.35
2019-01-15T09:22:11.671Z,86.82
2019-01-15T09:23:11.764Z,86.54
2019-01-15T09:24:11.848Z,86.54
2019-01-15T09:25:11.936Z,85.97
2019-01-15T09:26:12.025Z,86.35
2019-01-15T09:27:12.119Z,85.97
2019-01-15T09:28:12.203Z,86.63
2019-01-15T09:29:12.297Z,85.68
2019-01-15T09:30:12.387Z,85.59
2019-01-15T09:31:12.472Z,85.59
2019-01-15T09:32:12.548Z,85.59
2019-01-15T09:33:12.638Z,85.68
2019-01-15T09:34:12.731Z,85.68
2019-01-15T09:35:12.819Z,85.21
2019-01-15T09:36:12.906Z,86.25
2019-01-15T09:37:12.996Z,86.25
2019-01-15T09:38:13.085Z,86.35
2019-01-15T09:39:13.163Z,86.25
2019-01-15T09:40:13.247Z,85.40
2019-01-15T09:41:13.333Z,85.59
2019-01-15T09:42:13.423Z,86.44
2019-01-15T09:43:13.513Z,86.82
2019-01-15T09:44:13.602Z,86.97
2019-01-15T09:45:13.697Z,87.39
2019-01-15T09:46:13.782Z,87.01
2019-01-15T09:47:13.877Z,86.82
2019-01-15T09:48:13.973Z,86.54
2019-01-15T09:49:14.058Z,86.07
2019-01-15T09:50:14.141Z,85.87
2019-01-15T09:51:14.236Z,85.68
2019-01-15T09:52:20.527Z,85.68
2019-01-15T09:53:14.410Z,85.68
2019-01-15T09:54:14.497Z,85.87
2019-01-15T09:55:14.585Z,86.54
2019-01-15T09:56:14.674Z,86.72
2019-01-15T09:57:14.768Z,87.11
2019-01-15T09:58:14.857Z,86.82
2019-01-15T09:59:14.935Z,86.16
2019-01-15T10:00:15.024Z,86.25
2019-01-15T10:01:15.110Z,86.35
2019-01-15T10:02:15.196Z,86.44
2019-01-15T10:03:15.287Z,85.97
2019-01-15T10:04:15.375Z,86.07
2019-01-15T10:05:15.460Z,87.01
2019-01-15T10:06:15.546Z,86.72
2019-01-15T10:07:15.628Z,86.91
2019-01-15T10:08:15.721Z,86.77
2019-01-15T10:09:15.829Z,86.39
2019-01-15T10:10:15.888Z,85.78
2019-01-15T10:11:15.980Z,85.91
2019-01-15T10:12:16.063Z,85.63
2019-01-15T10:13:16.148Z,85.82
2019-01-15T10:14:16.239Z,85.44
2019-01-15T10:15:16.328Z,85.91
2019-01-15T10:16:16.417Z,85.63
2019-01-15T10:17:16.515Z,85.82
2019-01-15T10:18:16.593Z,85.44
2019-01-15T10:19:16.691Z,85.06
2019-01-15T10:20:16.783Z,84.49
2019-01-15T10:21:16.847Z,84.59
2019-01-15T10:22:16.939Z,84.97
2019-01-15T10:23:17.033Z,84.68
2019-01-15T10:24:17.084Z,84.68
2019-01-15T10:25:17.170Z,84.87
2019-01-15T10:26:17.259Z,84.78
2019-01-15T10:27:17.396Z,84.97
2019-01-15T10:30:00.423Z,84.49
2019-01-15T10:31:00.500Z,85.06
2019-01-15T10:32:00.621Z,84.87
2019-01-15T10:33:00.710Z,84.87
2019-01-15T10:34:00.802Z,85.63
2019-01-15T10:35:00.882Z,85.25
2019-01-15T10:36:00.977Z,85.25
2019-01-15T10:37:01.061Z,85.63
2019-01-15T10:38:01.167Z,85.44
2019-01-15T10:39:01.255Z,85.91
2019-01-15T10:40:01.350Z,86.68
2019-01-15T10:41:01.438Z,86.35
2019-01-15T10:42:01.520Z,86.87
2019-01-15T10:43:01.612Z,87.15
2019-01-15T10:44:01.700Z,87.24
2019-01-15T10:45:01.791Z,87.34
2019-01-15T10:46:01.873Z,87.34
2019-01-15T10:47:01.962Z,86.68
2019-01-15T10:48:02.052Z,86.39
2019-01-15T10:49:02.141Z,86.77
2019-01-15T10:50:02.230Z,86.87
2019-01-15T10:51:02.346Z,86.58
2019-01-15T10:52:02.402Z,86.77
2019-01-15T10:53:02.485Z,86.30
2019-01-15T10:54:02.582Z,86.96
2019-01-15T10:55:02.648Z,86.20
2019-01-15T10:56:02.734Z,86.30
2019-01-15T10:57:02.823Z,85.91
2019-01-15T10:58:02.908Z,86.30
2019-01-15T10:59:03.001Z,85.91
2019-01-15T11:00:03.093Z,86.11
2019-01-15T11:01:03.172Z,85.53
2019-01-15T11:02:03.262Z,85.63
2019-01-15T11:03:03.356Z,85.63
2019-01-15T11:04:03.441Z,85.35
2019-01-15T11:05:03.531Z,85.44
2019-01-15T11:06:03.616Z,85.11
2019-01-15T11:07:03.709Z,85.30
2019-01-15T11:08:03.799Z,85.20
2019-01-15T11:09:03.891Z,85.01
2019-01-15T11:10:03.980Z,85.11
2019-01-15T11:11:04.062Z,85.20
2019-01-15T11:12:04.155Z,84.53
2019-01-15T11:13:04.243Z,84.53
2019-01-15T11:14:04.337Z,84.53
2019-01-15T11:15:04.434Z,85.39
2019-01-15T11:16:04.524Z,84.91
2019-01-15T11:17:04.612Z,84.91
2019-01-15T11:18:04.699Z,85.11
2019-01-15T11:19:04.791Z,84.44
2019-01-15T11:20:04.880Z,84.44
2019-01-15T11:21:04.966Z,84.63
2019-01-15T11:22:05.054Z,84.34
2019-01-15T11:23:05.148Z,85.01
2019-01-15T11:24:05.242Z,84.82
2019-01-15T11:25:05.345Z,84.63
2019-01-15T11:26:05.432Z,84.34
2019-01-15T11:27:05.511Z,84.78
2019-01-15T11:28:05.613Z,85.53
2019-01-15T11:29:05.698Z,85.72
2019-01-15T11:30:05.788Z,85.68
2019-01-15T11:31:05.874Z,85.49
2019-01-15T11:32:05.966Z,85.01
2019-01-15T11:33:06.054Z,84.63
2019-01-15T11:34:06.165Z,84.53
2019-01-15T11:35:06.255Z,85.20
2019-01-15T11:36:06.345Z,84.63
2019-01-15T11:37:06.473Z,84.34
2019-01-15T11:38:06.517Z,84.82
2019-01-15T11:39:06.604Z,84.63
2019-01-15T11:40:06.694Z,84.53
2019-01-15T11:41:06.786Z,84.72
2019-01-15T11:42:06.872Z,84.53
2019-01-15T11:43:06.966Z,85.30
2019-01-15T11:44:07.053Z,85.11
2019-01-15T11:45:07.149Z,85.01
2019-01-15T11:46:07.240Z,85.16
2019-01-15T11:47:07.331Z,85.01
2019-01-15T11:48:07.423Z,85.30
2019-01-15T11:49:07.560Z,85.11
2019-01-15T11:50:07.633Z,85.20
2019-01-15T11:51:07.685Z,84.82
2019-01-15T11:52:07.775Z,84.40
2019-01-15T11:53:07.862Z,85.63
2019-01-15T11:54:07.994Z,85.86
2019-01-15T11:55:08.041Z,85.58
2019-01-15T11:56:08.139Z,85.68
2019-01-15T11:57:08.214Z,85.68
2019-01-15T11:58:08.311Z,85.77
2019-01-15T11:59:08.412Z,85.86
2019-01-15T12:00:08.486Z,84.91
2019-01-15T12:01:08.574Z,84.63
2019-01-15T12:02:08.665Z,84.82
2019-01-15T12:03:08.770Z,84.53
2019-01-15T12:04:08.842Z,85.39
2019-01-15T12:05:08.923Z,84.53
2019-01-15T12:06:09.026Z,84.44
2019-01-15T12:07:09.089Z,84.72
2019-01-15T12:08:09.175Z,85.11
2019-01-15T12:09:09.260Z,84.53
2019-01-15T12:10:09.359Z,84.82
2019-01-15T12:11:09.482Z,85.30
2019-01-15T12:12:09.542Z,84.53
2019-01-15T12:13:09.630Z,84.63
2019-01-15T12:14:09.713Z,84.53
2019-01-15T12:15:10.983Z,85.49
2019-01-15T12:16:09.912Z,84.72
2019-01-15T12:17:09.999Z,84.53
2019-01-15T12:18:10.082Z,84.63
2019-01-15T12:19:10.173Z,84.53
2019-01-15T12:20:10.254Z,85.39
2019-01-15T12:21:10.345Z,84.91
2019-01-15T12:22:10.432Z,84.44
2019-01-15T12:23:10.516Z,84.63
2019-01-15T12:24:10.610Z,85.11
2019-01-15T12:25:10.696Z,85.49
2019-01-15T12:26:10.794Z,84.53
2019-01-15T12:27:10.886Z,84.53
2019-01-15T12:28:10.970Z,84.44
2019-01-15T12:29:11.059Z,84.82
2019-01-15T12:30:11.174Z,84.53
2019-01-15T12:31:11.265Z,85.01
2019-01-15T12:32:11.347Z,85.20
2019-01-15T12:33:11.436Z,84.72
2019-01-15T12:34:11.527Z,85.68
2019-01-15T12:35:11.614Z,86.72
2019-01-15T12:36:11.704Z,86.53
2019-01-15T12:37:11.792Z,86.24
2019-01-15T12:38:11.880Z,86.05
2019-01-15T12:39:11.972Z,85.68
2019-01-15T12:40:12.062Z,85.68
2019-01-15T12:41:12.149Z,85.68
2019-01-15T12:42:12.238Z,85.49
2019-01-15T12:43:12.332Z,85.49
2019-01-15T12:44:12.418Z,84.82
2019-01-15T12:45:18.233Z,84.91
2019-01-15T12:46:12.598Z,84.72
2019-01-15T12:47:12.685Z,84.53
2019-01-15T12:48:12.776Z,85.30
2019-01-15T12:49:12.862Z,84.63
2019-01-15T12:50:13.017Z,84.91
2019-01-15T12:51:13.102Z,85.01
2019-01-15T12:52:13.189Z,85.01
2019-01-15T12:53:13.279Z,85.39
2019-01-15T12:54:13.368Z,84.44
2019-01-15T12:55:13.457Z,84.58
2019-01-15T12:56:13.539Z,84.53
2019-01-15T12:57:19.060Z,84.58